sensor_id;sensor_type;location;lat;lon;timestamp;pressure;altitude;pressure_sealevel;temperature;humidity
29215;BME280;16252;49.816;7.964;2023-01-26T00:00:22;100740.31;;;4.20;65.23
29215;BME280;16252;49.816;7.964;2023-01-26T00:02:47;100749.03;;;4.24;65.06
29215;BME280;16252;49.816;7.964;2023-01-26T00:05:13;100732.59;;;4.14;65.20
29215;BME280;16252;49.816;7.964;2023-01-26T00:07:38;100729.03;;;4.15;65.21
29215;BME280;16252;49.816;7.964;2023-01-26T00:10:06;100721.38;;;4.07;65.26
29215;BME280;16252;49.816;7.964;2023-01-26T00:12:32;100736.97;;;4.15;65.39
29215;BME280;16252;49.816;7.964;2023-01-26T00:14:57;100703.19;;;3.98;65.31
29215;BME280;16252;49.816;7.964;2023-01-26T00:17:22;100740.56;;;4.14;65.21
29215;BME280;16252;49.816;7.964;2023-01-26T00:19:53;100715.34;;;4.04;65.30
29215;BME280;16252;49.816;7.964;2023-01-26T00:22:20;100712.84;;;3.99;65.29
29215;BME280;16252;49.816;7.964;2023-01-26T00:24:46;100697.34;;;3.90;65.35
29215;BME280;16252;49.816;7.964;2023-01-26T00:27:11;100678.31;;;3.79;65.34
29215;BME280;16252;49.816;7.964;2023-01-26T00:29:36;100731.22;;;4.04;65.27
29215;BME280;16252;49.816;7.964;2023-01-26T00:32:02;100712.25;;;3.93;65.44
29215;BME280;16252;49.816;7.964;2023-01-26T00:34:27;100727.84;;;4.00;65.41
29215;BME280;16252;49.816;7.964;2023-01-26T00:36:52;100720.41;;;3.86;65.43
29215;BME280;16252;49.816;7.964;2023-01-26T00:39:17;100735.09;;;3.95;65.32
29215;BME280;16252;49.816;7.964;2023-01-26T00:41:43;100715.34;;;3.80;65.34
29215;BME280;16252;49.816;7.964;2023-01-26T00:44:26;100693.69;;;3.69;65.31
29215;BME280;16252;49.816;7.964;2023-01-26T00:46:52;100717.88;;;3.83;65.46
29215;BME280;16252;49.816;7.964;2023-01-26T00:49:17;100699.63;;;3.76;65.39
29215;BME280;16252;49.816;7.964;2023-01-26T00:51:42;100710.88;;;3.82;65.54
29215;BME280;16252;49.816;7.964;2023-01-26T00:54:07;100724.03;;;3.84;65.44
29215;BME280;16252;49.816;7.964;2023-01-26T00:56:33;100706.59;;;3.78;65.38
29215;BME280;16252;49.816;7.964;2023-01-26T00:58:58;100719.59;;;3.84;65.45
29215;BME280;16252;49.816;7.964;2023-01-26T01:01:23;100691.03;;;3.69;65.44
29215;BME280;16252;49.816;7.964;2023-01-26T01:03:48;100716.38;;;3.76;65.26
29215;BME280;16252;49.816;7.964;2023-01-26T01:06:16;100715.44;;;3.77;65.50
29215;BME280;16252;49.816;7.964;2023-01-26T01:08:41;100694.94;;;3.59;65.21
29215;BME280;16252;49.816;7.964;2023-01-26T01:11:09;100738.13;;;3.84;65.60
29215;BME280;16252;49.816;7.964;2023-01-26T01:13:34;100740.75;;;3.84;65.38
29215;BME280;16252;49.816;7.964;2023-01-26T01:15:59;100717.50;;;3.69;65.38
29215;BME280;16252;49.816;7.964;2023-01-26T01:18:25;100734.91;;;3.76;65.55
29215;BME280;16252;49.816;7.964;2023-01-26T01:20:50;100724.44;;;3.73;65.40
29215;BME280;16252;49.816;7.964;2023-01-26T01:23:15;100719.25;;;3.70;65.45
29215;BME280;16252;49.816;7.964;2023-01-26T01:25:40;100711.50;;;3.64;65.42
29215;BME280;16252;49.816;7.964;2023-01-26T01:28:06;100722.78;;;3.69;65.33
29215;BME280;16252;49.816;7.964;2023-01-26T01:30:31;100728.78;;;3.74;65.29
29215;BME280;16252;49.816;7.964;2023-01-26T01:32:56;100719.34;;;3.67;65.45
29215;BME280;16252;49.816;7.964;2023-01-26T01:35:21;100686.31;;;3.54;65.28
29215;BME280;16252;49.816;7.964;2023-01-26T01:37:47;100706.50;;;3.56;65.16
29215;BME280;16252;49.816;7.964;2023-01-26T01:40:12;100740.16;;;3.78;65.23
29215;BME280;16252;49.816;7.964;2023-01-26T01:42:37;100735.19;;;3.68;65.15
29215;BME280;16252;49.816;7.964;2023-01-26T01:47:51;100707.44;;;3.55;65.16
29215;BME280;16252;49.816;7.964;2023-01-26T01:50:18;100725.72;;;3.61;65.00
29215;BME280;16252;49.816;7.964;2023-01-26T01:52:44;100712.78;;;3.54;65.25
29215;BME280;16252;49.816;7.964;2023-01-26T01:55:11;100731.59;;;3.69;65.22
29215;BME280;16252;49.816;7.964;2023-01-26T01:57:53;100715.09;;;3.63;65.10
29215;BME280;16252;49.816;7.964;2023-01-26T02:00:21;100701.47;;;3.48;65.15
29215;BME280;16252;49.816;7.964;2023-01-26T02:02:59;100710.94;;;3.56;65.15
29215;BME280;16252;49.816;7.964;2023-01-26T02:05:41;100690.97;;;3.47;65.03
29215;BME280;16252;49.816;7.964;2023-01-26T02:08:10;100723.16;;;3.60;64.97
29215;BME280;16252;49.816;7.964;2023-01-26T02:10:37;100704.09;;;3.50;65.13
29215;BME280;16252;49.816;7.964;2023-01-26T02:13:03;100696.19;;;3.48;65.12
29215;BME280;16252;49.816;7.964;2023-01-26T02:15:29;100695.22;;;3.51;65.05
29215;BME280;16252;49.816;7.964;2023-01-26T02:17:55;100697.16;;;3.46;64.92
29215;BME280;16252;49.816;7.964;2023-01-26T02:20:43;100685.50;;;3.52;64.87
29215;BME280;16252;49.816;7.964;2023-01-26T02:28:23;100673.47;;;3.43;64.99
29215;BME280;16252;49.816;7.964;2023-01-26T02:30:49;100681.13;;;3.51;65.05
29215;BME280;16252;49.816;7.964;2023-01-26T02:33:19;100679.47;;;3.48;64.92
29215;BME280;16252;49.816;7.964;2023-01-26T02:35:45;100706.34;;;3.61;64.85
29215;BME280;16252;49.816;7.964;2023-01-26T02:38:10;100702.06;;;3.57;64.70
29215;BME280;16252;49.816;7.964;2023-01-26T02:40:53;100669.72;;;3.48;64.31
29215;BME280;16252;49.816;7.964;2023-01-26T02:43:20;100666.63;;;3.37;64.46
29215;BME280;16252;49.816;7.964;2023-01-26T02:45:47;100691.84;;;3.47;64.49
29215;BME280;16252;49.816;7.964;2023-01-26T02:48:12;100673.75;;;3.35;64.45
29215;BME280;16252;49.816;7.964;2023-01-26T02:50:37;100665.28;;;3.25;64.27
29215;BME280;16252;49.816;7.964;2023-01-26T02:53:03;100661.00;;;3.21;64.48
29215;BME280;16252;49.816;7.964;2023-01-26T02:55:28;100695.50;;;3.43;64.48
29215;BME280;16252;49.816;7.964;2023-01-26T02:58:00;100694.53;;;3.46;64.47
29215;BME280;16252;49.816;7.964;2023-01-26T03:00:34;100680.59;;;3.41;64.38
29215;BME280;16252;49.816;7.964;2023-01-26T03:03:10;100653.72;;;3.28;64.39
29215;BME280;16252;49.816;7.964;2023-01-26T03:05:36;100653.75;;;3.26;64.52
29215;BME280;16252;49.816;7.964;2023-01-26T03:08:01;100651.13;;;3.26;64.63
29215;BME280;16252;49.816;7.964;2023-01-26T03:10:30;100652.69;;;3.32;64.55
29215;BME280;16252;49.816;7.964;2023-01-26T03:12:55;100618.19;;;3.12;64.56
29215;BME280;16252;49.816;7.964;2023-01-26T03:15:20;100565.38;;;2.83;64.42
29215;BME280;16252;49.816;7.964;2023-01-26T03:18:06;100668.59;;;3.56;64.24
29215;BME280;16252;49.816;7.964;2023-01-26T03:20:51;100654.56;;;3.54;64.30
29215;BME280;16252;49.816;7.964;2023-01-26T03:23:35;100630.16;;;3.45;64.44
29215;BME280;16252;49.816;7.964;2023-01-26T03:26:19;100616.19;;;3.42;64.40
29215;BME280;16252;49.816;7.964;2023-01-26T03:29:02;100643.69;;;3.61;64.33
29215;BME280;16252;49.816;7.964;2023-01-26T03:31:28;100520.84;;;2.98;64.15
29215;BME280;16252;49.816;7.964;2023-01-26T03:33:53;100608.75;;;3.52;64.12
29215;BME280;16252;49.816;7.964;2023-01-26T03:36:18;100611.38;;;3.53;64.26
29215;BME280;16252;49.816;7.964;2023-01-26T03:38:43;100623.19;;;3.66;64.24
29215;BME280;16252;49.816;7.964;2023-01-26T03:41:09;100639.66;;;3.75;64.28
29215;BME280;16252;49.816;7.964;2023-01-26T03:43:52;100606.50;;;3.64;64.25
29215;BME280;16252;49.816;7.964;2023-01-26T03:46:36;100641.16;;;3.82;64.23
29215;BME280;16252;49.816;7.964;2023-01-26T03:49:20;100582.25;;;3.53;63.93
29215;BME280;16252;49.816;7.964;2023-01-26T03:52:04;100617.75;;;3.71;63.99
29215;BME280;16252;49.816;7.964;2023-01-26T03:54:48;100622.09;;;3.72;64.36
29215;BME280;16252;49.816;7.964;2023-01-26T03:57:32;100609.81;;;3.71;64.33
29215;BME280;16252;49.816;7.964;2023-01-26T03:59:58;100621.06;;;3.76;64.10
29215;BME280;16252;49.816;7.964;2023-01-26T04:02:23;100561.34;;;3.47;64.24
29215;BME280;16252;49.816;7.964;2023-01-26T04:05:07;100625.38;;;3.79;64.21
29215;BME280;16252;49.816;7.964;2023-01-26T04:07:51;100608.00;;;3.72;63.90
29215;BME280;16252;49.816;7.964;2023-01-26T04:10:35;100634.94;;;3.83;64.18
29215;BME280;16252;49.816;7.964;2023-01-26T04:13:00;100604.63;;;3.68;64.06
29215;BME280;16252;49.816;7.964;2023-01-26T04:15:46;100619.09;;;3.81;63.89
29215;BME280;16252;49.816;7.964;2023-01-26T04:18:30;100601.84;;;3.71;63.82
29215;BME280;16252;49.816;7.964;2023-01-26T04:21:14;100574.16;;;3.58;64.09
29215;BME280;16252;49.816;7.964;2023-01-26T04:23:53;100576.72;;;3.59;63.95
29215;BME280;16252;49.816;7.964;2023-01-26T04:26:30;100617.22;;;3.85;63.91
29215;BME280;16252;49.816;7.964;2023-01-26T04:29:02;100589.56;;;3.70;64.07
29215;BME280;16252;49.816;7.964;2023-01-26T04:31:28;100575.53;;;3.68;64.27
29215;BME280;16252;49.816;7.964;2023-01-26T04:33:53;100572.88;;;3.68;63.95
29215;BME280;16252;49.816;7.964;2023-01-26T04:36:19;100566.78;;;3.66;63.90
29215;BME280;16252;49.816;7.964;2023-01-26T04:38:44;100578.09;;;3.69;63.91
29215;BME280;16252;49.816;7.964;2023-01-26T04:41:09;100576.31;;;3.70;63.99
29215;BME280;16252;49.816;7.964;2023-01-26T04:43:34;100552.16;;;3.56;63.89
29215;BME280;16252;49.816;7.964;2023-01-26T04:46:06;100600.34;;;3.87;63.78
29215;BME280;16252;49.816;7.964;2023-01-26T04:48:31;100515.00;;;3.37;63.82
29215;BME280;16252;49.816;7.964;2023-01-26T04:50:59;100595.16;;;3.84;63.88
29215;BME280;16252;49.816;7.964;2023-01-26T04:53:24;100566.81;;;3.64;63.83
29215;BME280;16252;49.816;7.964;2023-01-26T04:55:50;100570.22;;;3.68;63.86
29215;BME280;16252;49.816;7.964;2023-01-26T04:58:16;100478.81;;;3.14;63.96
29215;BME280;16252;49.816;7.964;2023-01-26T05:00:41;100593.44;;;3.83;63.58
29215;BME280;16252;49.816;7.964;2023-01-26T05:03:06;100590.81;;;3.83;63.88
29215;BME280;16252;49.816;7.964;2023-01-26T05:05:38;100562.22;;;3.69;63.51
29215;BME280;16252;49.816;7.964;2023-01-26T05:08:04;100551.13;;;3.60;63.87
29215;BME280;16252;49.816;7.964;2023-01-26T05:10:30;100595.06;;;3.87;63.86
29215;BME280;16252;49.816;7.964;2023-01-26T05:12:56;100570.06;;;3.73;63.73
29215;BME280;16252;49.816;7.964;2023-01-26T05:15:21;100561.22;;;3.72;63.63
29215;BME280;16252;49.816;7.964;2023-01-26T05:17:46;100536.34;;;3.54;63.67
29215;BME280;16252;49.816;7.964;2023-01-26T05:20:12;100549.06;;;3.68;63.25
29215;BME280;16252;49.816;7.964;2023-01-26T05:22:37;100544.78;;;3.64;63.30
29215;BME280;16252;49.816;7.964;2023-01-26T05:25:03;100549.28;;;3.62;63.42
29215;BME280;16252;49.816;7.964;2023-01-26T05:27:29;100570.78;;;3.76;63.31
29215;BME280;16252;49.816;7.964;2023-01-26T05:29:54;100523.41;;;3.46;63.38
29215;BME280;16252;49.816;7.964;2023-01-26T05:32:24;100566.47;;;3.74;63.38
29215;BME280;16252;49.816;7.964;2023-01-26T05:34:51;100588.09;;;3.85;63.43
29215;BME280;16252;49.816;7.964;2023-01-26T05:37:16;100573.38;;;3.78;63.35
29215;BME280;16252;49.816;7.964;2023-01-26T05:39:41;100526.00;;;3.48;63.23
29215;BME280;16252;49.816;7.964;2023-01-26T05:42:06;100535.47;;;3.54;63.19
29215;BME280;16252;49.816;7.964;2023-01-26T05:44:32;100565.66;;;3.72;63.33
29215;BME280;16252;49.816;7.964;2023-01-26T05:46:57;100561.22;;;3.72;63.31
29215;BME280;16252;49.816;7.964;2023-01-26T05:49:22;100559.97;;;3.59;63.24
29215;BME280;16252;49.816;7.964;2023-01-26T05:51:47;100590.84;;;3.82;63.15
29215;BME280;16252;49.816;7.964;2023-01-26T05:54:13;100586.50;;;3.81;63.22
29215;BME280;16252;49.816;7.964;2023-01-26T05:56:38;100568.31;;;3.72;63.17
29215;BME280;16252;49.816;7.964;2023-01-26T05:59:03;100526.13;;;3.45;63.11
29215;BME280;16252;49.816;7.964;2023-01-26T06:01:28;100571.13;;;3.67;63.15
29215;BME280;16252;49.816;7.964;2023-01-26T06:03:54;100581.63;;;3.70;63.05
29215;BME280;16252;49.816;7.964;2023-01-26T06:06:19;100572.88;;;3.68;62.99
29215;BME280;16252;49.816;7.964;2023-01-26T06:08:44;100553.16;;;3.53;63.13
29215;BME280;16252;49.816;7.964;2023-01-26T06:11:09;100557.41;;;3.57;63.13
29215;BME280;16252;49.816;7.964;2023-01-26T06:13:35;100587.59;;;3.75;62.85
29215;BME280;16252;49.816;7.964;2023-01-26T06:16:00;100595.28;;;3.81;62.98
29215;BME280;16252;49.816;7.964;2023-01-26T06:18:26;100597.06;;;3.81;63.10
29215;BME280;16252;49.816;7.964;2023-01-26T06:20:51;100515.03;;;3.35;63.07
29215;BME280;16252;49.816;7.964;2023-01-26T06:23:16;100576.06;;;3.76;63.23
29215;BME280;16252;49.816;7.964;2023-01-26T06:25:41;100557.13;;;3.65;63.19
29215;BME280;16252;49.816;7.964;2023-01-26T06:28:07;100553.72;;;3.61;62.95
29215;BME280;16252;49.816;7.964;2023-01-26T06:30:32;100539.97;;;3.52;62.79
29215;BME280;16252;49.816;7.964;2023-01-26T06:32:58;100588.31;;;3.79;63.00
29215;BME280;16252;49.816;7.964;2023-01-26T06:35:24;100595.13;;;3.86;62.78
29215;BME280;16252;49.816;7.964;2023-01-26T06:37:51;100540.66;;;3.57;62.79
29215;BME280;16252;49.816;7.964;2023-01-26T06:40:17;100597.72;;;3.87;62.98
29215;BME280;16252;49.816;7.964;2023-01-26T06:42:50;100604.53;;;3.93;62.95
29215;BME280;16252;49.816;7.964;2023-01-26T06:45:16;100609.97;;;3.90;63.05
29215;BME280;16252;49.816;7.964;2023-01-26T06:47:49;100585.81;;;3.76;62.83
29215;BME280;16252;49.816;7.964;2023-01-26T06:50:17;100593.31;;;3.86;62.89
29215;BME280;16252;49.816;7.964;2023-01-26T06:52:46;100586.44;;;3.82;62.86
29215;BME280;16252;49.816;7.964;2023-01-26T06:55:21;100614.97;;;3.98;62.60
29215;BME280;16252;49.816;7.964;2023-01-26T06:57:48;100597.72;;;3.87;62.75
29215;BME280;16252;49.816;7.964;2023-01-26T07:00:13;100582.41;;;3.72;62.75
29215;BME280;16252;49.816;7.964;2023-01-26T07:02:39;100615.31;;;3.88;62.83
29215;BME280;16252;49.816;7.964;2023-01-26T07:05:05;100612.16;;;3.79;62.64
29215;BME280;16252;49.816;7.964;2023-01-26T07:07:31;100589.59;;;3.68;62.84
29215;BME280;16252;49.816;7.964;2023-01-26T07:09:56;100580.28;;;3.58;62.71
29215;BME280;16252;49.816;7.964;2023-01-26T07:12:21;100474.41;;;2.91;62.59
29215;BME280;16252;49.816;7.964;2023-01-26T07:14:47;100623.59;;;3.79;62.66
29215;BME280;16252;49.816;7.964;2023-01-26T07:17:12;100604.13;;;3.58;62.74
29215;BME280;16252;49.816;7.964;2023-01-26T07:19:37;100617.97;;;3.65;62.65
29215;BME280;16252;49.816;7.964;2023-01-26T07:22:03;100645.03;;;3.73;62.56
29215;BME280;16252;49.816;7.964;2023-01-26T07:24:28;100621.78;;;3.58;62.74
29215;BME280;16252;49.816;7.964;2023-01-26T07:26:54;100613.19;;;3.51;62.69
29215;BME280;16252;49.816;7.964;2023-01-26T07:29:19;100592.69;;;3.34;62.70
29215;BME280;16252;49.816;7.964;2023-01-26T07:31:45;100597.16;;;3.32;62.69
29215;BME280;16252;49.816;7.964;2023-01-26T07:34:10;100613.44;;;3.45;62.71
29215;BME280;16252;49.816;7.964;2023-01-26T07:36:36;100646.28;;;3.63;62.60
29215;BME280;16252;49.816;7.964;2023-01-26T07:39:01;100624.84;;;3.47;62.78
29215;BME280;16252;49.816;7.964;2023-01-26T07:41:26;100624.91;;;3.44;62.48
29215;BME280;16252;49.816;7.964;2023-01-26T07:43:51;100632.81;;;3.45;62.63
29215;BME280;16252;49.816;7.964;2023-01-26T07:46:17;100626.13;;;3.35;62.59
29215;BME280;16252;49.816;7.964;2023-01-26T07:48:42;100641.84;;;3.40;62.63
29215;BME280;16252;49.816;7.964;2023-01-26T07:51:07;100634.94;;;3.36;62.71
29215;BME280;16252;49.816;7.964;2023-01-26T07:53:35;100660.09;;;3.47;62.54
29215;BME280;16252;49.816;7.964;2023-01-26T07:56:14;100665.25;;;3.51;62.71
29215;BME280;16252;49.816;7.964;2023-01-26T07:58:40;100658.41;;;3.45;62.80
29215;BME280;16252;49.816;7.964;2023-01-26T08:01:08;100627.59;;;3.19;62.65
29215;BME280;16252;49.816;7.964;2023-01-26T08:03:34;100661.88;;;3.47;62.81
29215;BME280;16252;49.816;7.964;2023-01-26T08:06:00;100578.13;;;2.97;62.78
29215;BME280;16252;49.816;7.964;2023-01-26T08:08:25;100654.84;;;3.46;62.81
29215;BME280;16252;49.816;7.964;2023-01-26T08:10:51;100645.34;;;3.40;62.75
29215;BME280;16252;49.816;7.964;2023-01-26T08:13:16;100628.09;;;3.30;62.58
29215;BME280;16252;49.816;7.964;2023-01-26T08:15:41;100629.72;;;3.34;62.51
29215;BME280;16252;49.816;7.964;2023-01-26T08:18:06;100627.84;;;3.36;62.32
29215;BME280;16252;49.816;7.964;2023-01-26T08:20:32;100626.19;;;3.34;62.36
29215;BME280;16252;49.816;7.964;2023-01-26T08:22:57;100622.78;;;3.30;62.19
29215;BME280;16252;49.816;7.964;2023-01-26T08:25:22;100628.91;;;3.32;62.15
29215;BME280;16252;49.816;7.964;2023-01-26T08:27:47;100477.72;;;2.47;62.10
29215;BME280;16252;49.816;7.964;2023-01-26T08:30:13;100529.56;;;2.76;62.09
29215;BME280;16252;49.816;7.964;2023-01-26T08:32:40;100546.19;;;2.78;62.13
29215;BME280;16252;49.816;7.964;2023-01-26T08:35:05;100597.03;;;3.12;61.72
29215;BME280;16252;49.816;7.964;2023-01-26T08:37:32;100588.28;;;3.10;61.82
29215;BME280;16252;49.816;7.964;2023-01-26T08:39:57;100611.09;;;3.12;61.96
29215;BME280;16252;49.816;7.964;2023-01-26T08:42:22;100491.00;;;2.46;61.96
29215;BME280;16252;49.816;7.964;2023-01-26T08:44:49;100559.38;;;2.80;61.74
29215;BME280;16252;49.816;7.964;2023-01-26T08:47:14;100679.41;;;3.50;61.72
29215;BME280;16252;49.816;7.964;2023-01-26T08:49:39;100465.28;;;2.26;61.89
29215;BME280;16252;49.816;7.964;2023-01-26T08:52:05;100618.25;;;3.09;61.77
29215;BME280;16252;49.816;7.964;2023-01-26T08:54:30;100641.59;;;3.22;62.04
29215;BME280;16252;49.816;7.964;2023-01-26T08:56:56;100571.44;;;2.87;61.73
29215;BME280;16252;49.816;7.964;2023-01-26T08:59:21;100513.00;;;2.46;62.01
29215;BME280;16252;49.816;7.964;2023-01-26T09:01:47;100603.56;;;3.01;61.83
29215;BME280;16252;49.816;7.964;2023-01-26T09:04:13;100596.06;;;2.89;61.88
29215;BME280;16252;49.816;7.964;2023-01-26T09:06:38;100572.56;;;2.80;61.88
29215;BME280;16252;49.816;7.964;2023-01-26T09:09:03;100491.50;;;2.30;61.78
29215;BME280;16252;49.816;7.964;2023-01-26T09:11:28;100566.56;;;2.76;61.91
29215;BME280;16252;49.816;7.964;2023-01-26T09:13:54;100498.31;;;2.37;61.85
29215;BME280;16252;49.816;7.964;2023-01-26T09:16:23;100466.53;;;2.15;61.87
29215;BME280;16252;49.816;7.964;2023-01-26T09:18:50;100454.13;;;2.17;62.08
29215;BME280;16252;49.816;7.964;2023-01-26T09:21:15;100601.78;;;3.02;61.89
29215;BME280;16252;49.816;7.964;2023-01-26T09:23:41;100553.91;;;2.85;61.93
29215;BME280;16252;49.816;7.964;2023-01-26T09:26:06;100605.03;;;3.09;61.89
29215;BME280;16252;49.816;7.964;2023-01-26T09:28:32;100635.00;;;3.34;61.98
29215;BME280;16252;49.816;7.964;2023-01-26T09:31:05;100552.84;;;2.90;61.60
29215;BME280;16252;49.816;7.964;2023-01-26T09:33:31;100489.38;;;2.42;61.78
29215;BME280;16252;49.816;7.964;2023-01-26T09:36:02;100562.38;;;2.94;61.41
29215;BME280;16252;49.816;7.964;2023-01-26T09:38:27;100483.28;;;2.39;61.73
29215;BME280;16252;49.816;7.964;2023-01-26T09:43:45;100567.69;;;2.94;61.57
29215;BME280;16252;49.816;7.964;2023-01-26T09:51:35;100685.16;;;3.61;61.18
29215;BME280;16252;49.816;7.964;2023-01-26T09:56:40;100632.13;;;3.15;61.64
29215;BME280;16252;49.816;7.964;2023-01-26T09:59:27;100697.69;;;3.56;61.47
29215;BME280;16252;49.816;7.964;2023-01-26T10:02:04;100504.38;;;2.41;61.24
29215;BME280;16252;49.816;7.964;2023-01-26T10:04:43;100681.38;;;3.44;61.47
29215;BME280;16252;49.816;7.964;2023-01-26T10:07:11;100691.16;;;3.66;61.10
29215;BME280;16252;49.816;7.964;2023-01-26T10:09:39;100671.53;;;3.48;61.41
29215;BME280;16252;49.816;7.964;2023-01-26T10:12:07;100557.72;;;2.76;61.40
29215;BME280;16252;49.816;7.964;2023-01-26T10:14:39;100504.25;;;2.44;61.36
29215;BME280;16252;49.816;7.964;2023-01-26T10:17:15;100620.75;;;3.13;61.20
29215;BME280;16252;49.816;7.964;2023-01-26T10:19:45;100616.31;;;3.14;61.31
29215;BME280;16252;49.816;7.964;2023-01-26T10:22:19;100480.63;;;2.39;61.13
29215;BME280;16252;49.816;7.964;2023-01-26T10:24:48;100658.81;;;3.58;61.37
29215;BME280;16252;49.816;7.964;2023-01-26T10:27:14;100650.31;;;3.50;61.63
29215;BME280;16252;49.816;7.964;2023-01-26T10:29:39;100569.06;;;3.04;61.65
29215;BME280;16252;49.816;7.964;2023-01-26T10:32:05;100501.53;;;2.71;61.85
29215;BME280;16252;49.816;7.964;2023-01-26T10:34:33;100500.66;;;2.72;61.56
29215;BME280;16252;49.816;7.964;2023-01-26T10:37:17;100472.66;;;2.66;61.05
29215;BME280;16252;49.816;7.964;2023-01-26T10:40:00;100443.28;;;2.50;61.01
29215;BME280;16252;49.816;7.964;2023-01-26T10:42:28;100427.63;;;2.46;61.31
29215;BME280;16252;49.816;7.964;2023-01-26T10:44:54;100452.50;;;2.64;61.49
29215;BME280;16252;49.816;7.964;2023-01-26T10:47:20;100454.06;;;2.69;61.30
29215;BME280;16252;49.816;7.964;2023-01-26T10:49:48;100533.31;;;3.18;61.54
29215;BME280;16252;49.816;7.964;2023-01-26T10:52:16;100646.97;;;3.91;61.15
29215;BME280;16252;49.816;7.964;2023-01-26T10:54:46;100544.47;;;3.26;61.30
29215;BME280;16252;49.816;7.964;2023-01-26T10:57:27;100649.44;;;3.96;61.07
29215;BME280;16252;49.816;7.964;2023-01-26T10:59:58;100453.53;;;2.83;60.95
29215;BME280;16252;49.816;7.964;2023-01-26T11:02:29;100560.41;;;3.48;61.17
29215;BME280;16252;49.816;7.964;2023-01-26T11:07:39;100442.22;;;2.79;61.01
29215;BME280;16252;49.816;7.964;2023-01-26T11:12:47;100495.72;;;3.10;61.26
29215;BME280;16252;49.816;7.964;2023-01-26T11:15:23;100414.94;;;2.79;60.97
29215;BME280;16252;49.816;7.964;2023-01-26T11:17:57;100396.91;;;2.67;60.92
29215;BME280;16252;49.816;7.964;2023-01-26T11:23:04;100397.03;;;2.64;60.71
29215;BME280;16252;49.816;7.964;2023-01-26T11:25:47;100434.75;;;2.91;60.75
29215;BME280;16252;49.816;7.964;2023-01-26T11:28:37;100426.78;;;2.92;60.72
29215;BME280;16252;49.816;7.964;2023-01-26T11:31:15;100420.75;;;2.89;60.80
29215;BME280;16252;49.816;7.964;2023-01-26T11:34:00;100612.09;;;4.02;61.04
29215;BME280;16252;49.816;7.964;2023-01-26T11:36:58;100426.03;;;2.89;60.86
29215;BME280;16252;49.816;7.964;2023-01-26T11:42:41;100527.63;;;3.52;61.01
29215;BME280;16252;49.816;7.964;2023-01-26T11:48:19;100606.72;;;4.05;60.75
29215;BME280;16252;49.816;7.964;2023-01-26T11:51:10;100432.63;;;3.00;60.56
29215;BME280;16252;49.816;7.964;2023-01-26T11:54:02;100604.84;;;4.07;60.76
29215;BME280;16252;49.816;7.964;2023-01-26T11:57:03;100409.19;;;2.91;60.76
29215;BME280;16252;49.816;7.964;2023-01-26T11:59:35;100394.31;;;2.89;60.72
29215;BME280;16252;49.816;7.964;2023-01-26T12:04:50;100415.91;;;3.00;60.97
29215;BME280;16252;49.816;7.964;2023-01-26T12:07:46;100371.78;;;2.78;60.54
29215;BME280;16252;49.816;7.964;2023-01-26T12:10:16;100512.19;;;3.63;60.59
29215;BME280;16252;49.816;7.964;2023-01-26T12:12:48;100452.66;;;3.30;60.59
29215;BME280;16252;49.816;7.964;2023-01-26T12:15:23;100448.09;;;3.33;60.46
29215;BME280;16252;49.816;7.964;2023-01-26T12:18:11;100358.16;;;2.89;60.29
29215;BME280;16252;49.816;7.964;2023-01-26T12:20:49;100544.50;;;3.94;60.60
29215;BME280;16252;49.816;7.964;2023-01-26T12:23:46;100563.94;;;4.15;60.49
29215;BME280;16252;49.816;7.964;2023-01-26T12:26:14;100339.97;;;2.81;60.85
29215;BME280;16252;49.816;7.964;2023-01-26T12:28:47;100477.66;;;3.66;60.66
29215;BME280;16252;49.816;7.964;2023-01-26T12:33:44;100410.41;;;3.28;60.60
29215;BME280;16252;49.816;7.964;2023-01-26T12:36:22;100373.19;;;3.11;60.18
29215;BME280;16252;49.816;7.964;2023-01-26T12:41:42;100409.53;;;3.50;60.80
29215;BME280;16252;49.816;7.964;2023-01-26T12:46:40;100348.34;;;3.15;60.06
29215;BME280;16252;49.816;7.964;2023-01-26T12:49:25;100534.97;;;4.32;60.10
29215;BME280;16252;49.816;7.964;2023-01-26T12:52:04;100393.22;;;3.60;59.76
29215;BME280;16252;49.816;7.964;2023-01-26T12:54:53;100416.31;;;3.77;60.13
29215;BME280;16252;49.816;7.964;2023-01-26T12:57:23;100338.81;;;3.33;60.08
29215;BME280;16252;49.816;7.964;2023-01-26T12:59:50;100513.47;;;4.60;60.17
29215;BME280;16252;49.816;7.964;2023-01-26T13:02:30;100316.53;;;3.38;59.96
29215;BME280;16252;49.816;7.964;2023-01-26T13:04:59;100438.56;;;4.16;60.33
29215;BME280;16252;49.816;7.964;2023-01-26T13:07:27;100522.34;;;4.59;60.37
29215;BME280;16252;49.816;7.964;2023-01-26T13:12:49;100317.13;;;3.45;59.94
29215;BME280;16252;49.816;7.964;2023-01-26T13:15:19;100329.91;;;3.56;59.73
29215;BME280;16252;49.816;7.964;2023-01-26T13:17:57;100452.06;;;4.30;59.15
29215;BME280;16252;49.816;7.964;2023-01-26T13:20:26;100328.97;;;3.57;59.36
29215;BME280;16252;49.816;7.964;2023-01-26T13:22:54;100328.25;;;3.53;59.71
29215;BME280;16252;49.816;7.964;2023-01-26T13:25:30;100454.50;;;4.34;58.96
29215;BME280;16252;49.816;7.964;2023-01-26T13:35:35;100400.34;;;4.01;59.69
29215;BME280;16252;49.816;7.964;2023-01-26T13:40:50;100396.25;;;3.94;59.46
29215;BME280;16252;49.816;7.964;2023-01-26T13:43:34;100337.97;;;3.53;59.33
29215;BME280;16252;49.816;7.964;2023-01-26T13:46:16;100330.09;;;3.51;59.07
29215;BME280;16252;49.816;7.964;2023-01-26T13:48:48;100306.22;;;3.32;59.45
29215;BME280;16252;49.816;7.964;2023-01-26T13:54:05;100327.91;;;3.40;59.12
29215;BME280;16252;49.816;7.964;2023-01-26T13:56:35;100485.63;;;4.29;59.43
29215;BME280;16252;49.816;7.964;2023-01-26T13:59:06;100327.41;;;3.31;59.52
29215;BME280;16252;49.816;7.964;2023-01-26T14:01:32;100456.00;;;3.99;59.79
29215;BME280;16252;49.816;7.964;2023-01-26T14:04:04;100351.09;;;3.34;59.12
29215;BME280;16252;49.816;7.964;2023-01-26T14:06:30;100339.25;;;3.22;59.80
29215;BME280;16252;49.816;7.964;2023-01-26T14:08:57;100521.25;;;4.22;59.90
29215;BME280;16252;49.816;7.964;2023-01-26T14:11:25;100347.28;;;3.19;59.54